Time;durP1;ratioP1;P1;durP2;ratioP2;P2;SDS_P1;SDS_P2;PMS_P1;PMS_P2;Temp;Humidity;BMP_temperature;BMP_pressure;BME280_temperature;BME280_humidity;BME280_pressure;Samples;Min_cycle;Max_cycle;Signal;HPM_P1;HPM_P2
2023/03/19 00:00:48;;;;;;;0.70;0.60;;;5.60;54.10;;;;;;5086413;28;20494;-76
2023/03/19 00:03:15;;;;;;;1.00;0.70;;;5.60;54.50;;;;;;5088763;28;20500;-75
2023/03/19 00:05:52;;;;;;;0.95;0.52;;;5.60;54.50;;;;;;5086273;28;20080;-75
2023/03/19 00:08:19;;;;;;;2.33;1.00;;;5.60;54.00;;;;;;5071814;28;20068;-75
2023/03/19 00:10:47;;;;;;;1.75;0.90;;;5.60;54.20;;;;;;5088802;28;20088;-75
2023/03/19 00:13:15;;;;;;;4.57;1.08;;;5.60;55.00;;;;;;5061011;28;20102;-75
2023/03/19 00:15:42;;;;;;;1.27;0.98;;;5.60;54.60;;;;;;5062152;28;20531;-76
2023/03/19 00:18:09;;;;;;;0.80;0.52;;;5.50;54.50;;;;;;5087093;28;20572;-76
2023/03/19 00:20:37;;;;;;;1.55;0.80;;;5.50;54.50;;;;;;5069875;28;20099;-76
2023/03/19 00:23:06;;;;;;;1.95;0.60;;;5.50;54.70;;;;;;5066792;28;20067;-76
2023/03/19 00:25:33;;;;;;;4.65;1.05;;;5.50;55.40;;;;;;5054300;28;20040;-75
2023/03/19 00:28:00;;;;;;;2.88;0.93;;;5.50;55.10;;;;;;5090169;28;20082;-75
2023/03/19 00:30:28;;;;;;;1.83;0.90;;;5.50;55.30;;;;;;5078906;28;20067;-75
2023/03/19 00:32:55;;;;;;;1.27;0.73;;;5.50;55.30;;;;;;5071353;28;20072;-75
2023/03/19 00:35:23;;;;;;;1.30;0.80;;;5.50;55.30;;;;;;5049323;28;20559;-76
2023/03/19 00:37:51;;;;;;;2.20;1.27;;;5.50;55.40;;;;;;5056703;28;20130;-76
2023/03/19 00:40:20;;;;;;;1.63;0.98;;;5.50;55.40;;;;;;5051586;28;20049;-75
2023/03/19 00:42:48;;;;;;;0.80;0.80;;;5.50;55.60;;;;;;5061885;28;20504;-75
2023/03/19 00:45:16;;;;;;;0.88;0.60;;;5.50;55.60;;;;;;5067693;28;20052;-75
2023/03/19 00:47:43;;;;;;;1.90;0.88;;;5.40;55.60;;;;;;5064207;28;20041;-75
2023/03/19 00:50:14;;;;;;;1.50;0.93;;;5.40;56.10;;;;;;5082297;28;20058;-75
2023/03/19 00:52:41;;;;;;;1.38;0.80;;;5.40;55.80;;;;;;5090362;28;20040;-76
2023/03/19 00:55:09;;;;;;;2.13;1.10;;;5.40;56.00;;;;;;5065949;28;20135;-75
2023/03/19 00:57:38;;;;;;;5.25;0.70;;;5.40;55.70;;;;;;5079781;28;20055;-76
2023/03/19 01:00:09;;;;;;;4.50;0.70;;;5.40;55.80;;;;;;5073181;28;20087;-75
2023/03/19 01:02:36;;;;;;;1.30;0.70;;;5.40;55.90;;;;;;5038030;28;20044;-75
2023/03/19 01:05:05;;;;;;;0.70;0.50;;;5.40;55.90;;;;;;5074472;28;20056;-75
2023/03/19 01:07:33;;;;;;;2.88;0.93;;;5.40;55.80;;;;;;5081093;28;20137;-75
2023/03/19 01:10:00;;;;;;;0.82;0.68;;;5.40;56.20;;;;;;5088017;28;20147;-75
2023/03/19 01:12:28;;;;;;;1.25;0.80;;;5.40;56.40;;;;;;5093315;28;20139;-75
2023/03/19 01:14:57;;;;;;;0.70;0.70;;;5.40;56.40;;;;;;5058342;28;20090;-75
2023/03/19 01:17:24;;;;;;;1.35;0.80;;;5.30;56.30;;;;;;5067687;28;20058;-75
2023/03/19 01:19:52;;;;;;;2.42;0.85;;;5.30;56.60;;;;;;5082130;28;20052;-74
2023/03/19 01:22:20;;;;;;;1.92;0.70;;;5.40;56.50;;;;;;5056079;28;20052;-74
2023/03/19 01:24:53;;;;;;;0.90;0.60;;;5.40;56.50;;;;;;5073705;28;20051;-75
2023/03/19 01:27:21;;;;;;;1.25;0.65;;;5.40;56.30;;;;;;5061202;28;20052;-75
2023/03/19 01:29:51;;;;;;;1.30;0.50;;;5.40;56.70;;;;;;5064679;28;20044;-75
2023/03/19 01:32:30;;;;;;;1.80;0.70;;;5.40;56.50;;;;;;5038958;28;20051;-75
2023/03/19 01:35:19;;;;;;;2.17;1.05;;;5.30;57.30;;;;;;5063704;28;20487;-75
2023/03/19 01:37:47;;;;;;;1.85;1.02;;;5.30;57.00;;;;;;5070903;28;20051;-75
2023/03/19 01:40:15;;;;;;;1.42;0.80;;;5.30;57.40;;;;;;5072731;28;20095;-75
2023/03/19 01:42:58;;;;;;;0.90;0.68;;;5.30;58.10;;;;;;5060537;28;20139;-75
2023/03/19 01:45:56;;;;;;;5.18;0.60;;;5.20;58.90;;;;;;5071061;28;20571;-75
2023/03/19 01:48:33;;;;;;;1.33;1.10;;;5.20;59.30;;;;;;5079288;28;20090;-75
2023/03/19 01:51:09;;;;;;;1.73;0.80;;;5.20;59.50;;;;;;5060939;28;20057;-75
2023/03/19 01:54:06;;;;;;;5.15;0.57;;;5.20;59.20;;;;;;5049496;28;20040;-77
2023/03/19 01:56:58;;;;;;;0.90;0.68;;;5.20;59.00;;;;;;5073794;28;20052;-77
2023/03/19 01:59:48;;;;;;;1.90;0.55;;;5.30;58.60;;;;;;5083242;28;20048;-76
2023/03/19 02:02:39;;;;;;;2.35;0.60;;;5.30;58.50;;;;;;5078141;28;20055;-77
2023/03/19 02:05:24;;;;;;;1.73;1.00;;;5.20;58.60;;;;;;5077635;28;20398;-77
2023/03/19 02:07:55;;;;;;;1.00;0.70;;;5.20;58.60;;;;;;5070725;28;21580;-77
2023/03/19 02:10:23;;;;;;;1.45;0.80;;;5.20;58.60;;;;;;5080460;28;20500;-77
2023/03/19 02:12:51;;;;;;;1.10;0.82;;;5.20;58.60;;;;;;5050749;28;20052;-76
2023/03/19 02:15:19;;;;;;;3.60;0.90;;;5.20;58.50;;;;;;5074208;28;20056;-76
2023/03/19 02:17:47;;;;;;;2.35;0.80;;;5.20;58.00;;;;;;5059257;28;20508;-76
2023/03/19 02:20:26;;;;;;;1.60;0.75;;;5.20;58.20;;;;;;5084855;28;20505;-77
2023/03/19 02:23:04;;;;;;;1.42;0.95;;;5.20;58.10;;;;;;5058039;28;20056;-76
2023/03/19 02:25:39;;;;;;;1.67;0.80;;;5.20;58.20;;;;;;5070242;28;20052;-76
2023/03/19 02:28:09;;;;;;;2.17;0.90;;;5.10;58.30;;;;;;5071102;28;20067;-76
2023/03/19 02:30:38;;;;;;;2.05;1.02;;;5.10;58.70;;;;;;5061484;28;20044;-76
2023/03/19 02:33:12;;;;;;;1.02;0.82;;;5.10;58.70;;;;;;5041347;28;20040;-77
2023/03/19 02:35:40;;;;;;;1.55;0.88;;;5.10;58.60;;;;;;5091253;28;20432;-76
2023/03/19 02:38:08;;;;;;;0.98;0.75;;;5.10;58.70;;;;;;5042901;28;20064;-76
2023/03/19 02:40:41;;;;;;;1.30;0.93;;;5.10;58.60;;;;;;5072629;28;20040;-76
2023/03/19 02:43:10;;;;;;;4.43;0.93;;;5.20;58.70;;;;;;5083194;28;20048;-77
2023/03/19 02:45:37;;;;;;;3.95;1.00;;;5.10;58.60;;;;;;5058545;28;20082;-76
2023/03/19 02:48:05;;;;;;;1.35;1.00;;;5.10;58.70;;;;;;5084818;28;20048;-76
2023/03/19 02:50:33;;;;;;;4.50;1.20;;;5.10;59.20;;;;;;5072950;28;20048;-77
2023/03/19 02:53:00;;;;;;;3.60;1.00;;;5.00;59.50;;;;;;5082652;28;20052;-75
2023/03/19 02:55:28;;;;;;;4.03;1.30;;;5.00;60.00;;;;;;5047657;28;20063;-76
2023/03/19 02:57:55;;;;;;;2.83;1.40;;;5.00;60.50;;;;;;5062590;28;20072;-76
2023/03/19 03:00:24;;;;;;;2.03;1.10;;;5.00;61.20;;;;;;5067901;28;20048;-75
2023/03/19 03:02:52;;;;;;;2.30;1.08;;;4.90;61.70;;;;;;5078956;28;20421;-74
2023/03/19 03:05:20;;;;;;;2.58;1.00;;;4.90;62.00;;;;;;5063401;28;20047;-75
2023/03/19 03:07:48;;;;;;;2.47;1.00;;;4.90;62.40;;;;;;5054803;28;20048;-75
2023/03/19 03:10:18;;;;;;;2.25;0.85;;;4.90;62.60;;;;;;5069965;28;20040;-75
2023/03/19 03:12:46;;;;;;;4.38;1.88;;;4.90;62.60;;;;;;5090594;28;20101;-75
2023/03/19 03:15:13;;;;;;;2.92;1.05;;;4.80;62.70;;;;;;5089187;28;20542;-75
2023/03/19 03:17:45;;;;;;;2.40;1.77;;;4.90;63.20;;;;;;5090409;28;20074;-75
2023/03/19 03:20:16;;;;;;;3.67;0.93;;;4.80;62.90;;;;;;5090619;28;20071;-75
2023/03/19 03:22:44;;;;;;;1.88;1.10;;;4.90;62.60;;;;;;5049793;28;20321;-75
2023/03/19 03:25:13;;;;;;;3.55;1.05;;;4.80;62.60;;;;;;5043300;28;20084;-75
2023/03/19 03:27:41;;;;;;;2.65;1.17;;;4.80;62.60;;;;;;5069783;28;20462;-75
2023/03/19 03:30:12;;;;;;;4.43;1.77;;;4.80;62.60;;;;;;5051476;28;20039;-75
2023/03/19 03:32:40;;;;;;;3.53;1.30;;;4.80;62.60;;;;;;5089563;28;20051;-75
2023/03/19 03:35:10;;;;;;;2.38;1.52;;;4.80;62.40;;;;;;5062588;28;20044;-75
2023/03/19 03:37:38;;;;;;;2.63;1.30;;;4.80;62.20;;;;;;5084833;28;20432;-75
2023/03/19 03:40:08;;;;;;;2.70;1.80;;;4.80;61.90;;;;;;5035560;28;20143;-75
2023/03/19 03:42:37;;;;;;;4.18;1.05;;;4.70;61.80;;;;;;5063459;28;20130;-75
2023/03/19 03:45:08;;;;;;;3.88;1.02;;;4.70;62.10;;;;;;5049630;28;20047;-75
2023/03/19 03:47:36;;;;;;;3.53;1.58;;;4.80;61.90;;;;;;5064113;28;20421;-75
2023/03/19 03:50:06;;;;;;;2.00;1.30;;;4.70;61.70;;;;;;5070051;28;20539;-75
2023/03/19 03:52:35;;;;;;;10.93;1.25;;;4.70;61.70;;;;;;5070539;28;20063;-75
2023/03/19 03:55:03;;;;;;;2.55;1.67;;;4.70;61.60;;;;;;5087072;28;20040;-75
2023/03/19 03:57:31;;;;;;;5.25;1.27;;;4.80;61.30;;;;;;5072510;28;20398;-75
2023/03/19 03:59:59;;;;;;;3.78;1.67;;;4.80;61.20;;;;;;5087930;28;20083;-73
2023/03/19 04:02:27;;;;;;;3.17;1.20;;;4.70;60.80;;;;;;5059821;28;20130;-75
2023/03/19 04:04:54;;;;;;;6.13;1.27;;;4.70;60.70;;;;;;5065718;28;20098;-75
2023/03/19 04:07:22;;;;;;;2.53;1.05;;;4.60;61.00;;;;;;5052185;28;20052;-76
2023/03/19 04:09:57;;;;;;;3.05;1.00;;;4.60;60.80;;;;;;5070213;28;20047;-75
2023/03/19 04:12:25;;;;;;;2.60;1.00;;;4.60;60.90;;;;;;5072808;28;20052;-75
2023/03/19 04:14:52;;;;;;;2.60;1.08;;;4.70;60.40;;;;;;5055052;28;20071;-75
2023/03/19 04:17:20;;;;;;;6.30;1.00;;;4.70;60.70;;;;;;5072488;28;20048;-75
2023/03/19 04:19:47;;;;;;;1.70;1.00;;;4.70;60.60;;;;;;5069496;28;20138;-75
2023/03/19 04:22:15;;;;;;;1.67;0.77;;;4.70;60.60;;;;;;5042259;28;20063;-74
2023/03/19 04:24:42;;;;;;;9.20;1.40;;;4.70;60.90;;;;;;5070706;28;20056;-75
2023/03/19 04:27:12;;;;;;;2.22;1.00;;;4.70;61.00;;;;;;5081534;28;20075;-75
2023/03/19 04:29:41;;;;;;;6.13;1.35;;;4.60;60.80;;;;;;5055175;28;20067;-75
2023/03/19 04:32:09;;;;;;;2.55;0.88;;;4.60;60.90;;;;;;5065331;28;20048;-75
2023/03/19 04:34:37;;;;;;;2.65;1.13;;;4.70;60.50;;;;;;5081584;28;20192;-75
2023/03/19 04:37:05;;;;;;;1.42;1.00;;;4.60;60.90;;;;;;5070538;28;20044;-75
2023/03/19 04:39:35;;;;;;;6.05;1.25;;;4.70;61.10;;;;;;5053974;28;20037;-75
2023/03/19 04:42:04;;;;;;;2.78;1.00;;;4.70;61.20;;;;;;5068308;28;20068;-75
2023/03/19 04:44:37;;;;;;;;;;;4.70;61.10;;;;;;5088060;28;20497;-75
2023/03/19 04:47:09;;;;;;;1.08;0.93;;;4.70;61.10;;;;;;5066749;28;20015;-74
2023/03/19 04:49:48;;;;;;;1.95;1.65;;;4.70;61.10;;;;;;5042916;28;20044;-75
2023/03/19 04:52:18;;;;;;;3.60;1.10;;;4.70;61.40;;;;;;5077158;28;20439;-75
2023/03/19 04:54:46;;;;;;;2.60;1.40;;;4.70;61.10;;;;;;5057217;28;20059;-75
2023/03/19 04:57:14;;;;;;;5.70;1.38;;;4.70;61.10;;;;;;5093418;28;20050;-75
2023/03/19 04:59:45;;;;;;;1.95;1.40;;;4.70;61.40;;;;;;5075459;28;20131;-74
2023/03/19 05:02:16;;;;;;;2.22;1.50;;;4.80;61.50;;;;;;5071390;28;20055;-74
2023/03/19 05:04:44;;;;;;;1.73;0.90;;;4.80;61.40;;;;;;5070705;28;20557;-74
2023/03/19 05:07:14;;;;;;;1.95;0.98;;;4.80;61.40;;;;;;5073183;28;20495;-75
2023/03/19 05:09:45;;;;;;;8.45;1.15;;;4.80;61.40;;;;;;5075640;28;20048;-75
2023/03/19 05:12:14;;;;;;;2.63;1.30;;;4.80;61.60;;;;;;5059439;28;20139;-77
2023/03/19 05:14:47;;;;;;;4.85;1.13;;;4.70;61.60;;;;;;5070207;28;20043;-78
2023/03/19 05:17:19;;;;;;;3.92;1.02;;;4.70;61.90;;;;;;5064393;28;20135;-77
2023/03/19 05:20:06;;;;;;;6.93;1.17;;;4.60;61.90;;;;;;5068539;28;20102;-77
2023/03/19 05:22:35;;;;;;;7.25;1.60;;;4.60;62.40;;;;;;5075972;28;20048;-75
2023/03/19 05:25:05;;;;;;;4.35;1.30;;;4.60;62.60;;;;;;5058640;28;20523;-75
2023/03/19 05:27:33;;;;;;;6.60;1.38;;;4.60;62.60;;;;;;5065500;28;20040;-76
2023/03/19 05:30:10;;;;;;;2.80;1.20;;;4.70;62.60;;;;;;5072500;28;20056;-77
2023/03/19 05:32:58;;;;;;;4.80;1.17;;;4.60;62.50;;;;;;5046520;28;20063;-76
2023/03/19 05:35:38;;;;;;;3.72;1.33;;;4.60;62.60;;;;;;5069780;28;20052;-76
2023/03/19 05:38:12;;;;;;;4.68;1.65;;;4.60;63.00;;;;;;5070791;28;20048;-76
2023/03/19 05:40:45;;;;;;;2.25;1.30;;;4.60;63.10;;;;;;5071593;28;20465;-76
2023/03/19 05:43:39;;;;;;;1.95;1.00;;;4.70;64.00;;;;;;5059000;28;20051;-76
2023/03/19 05:46:13;;;;;;;2.80;1.00;;;4.80;62.70;;;;;;5074997;28;20150;-76
2023/03/19 05:48:41;;;;;;;5.45;1.23;;;4.80;62.70;;;;;;5092125;28;20520;-76
2023/03/19 05:51:17;;;;;;;5.78;1.08;;;4.80;62.90;;;;;;5069918;28;20044;-76
2023/03/19 05:53:46;;;;;;;4.97;1.80;;;4.90;63.10;;;;;;5095004;28;20575;-76
2023/03/19 05:56:36;;;;;;;4.03;1.10;;;4.90;62.90;;;;;;5080641;28;20055;-77
2023/03/19 05:59:27;;;;;;;2.53;1.50;;;4.90;63.10;;;;;;5075145;28;20106;-77
2023/03/19 06:02:10;;;;;;;1.50;1.23;;;4.90;63.20;;;;;;5059320;28;20063;-75
2023/03/19 06:04:39;;;;;;;2.70;1.30;;;4.90;63.30;;;;;;5079027;28;20048;-76
2023/03/19 06:07:07;;;;;;;5.68;1.48;;;5.00;63.10;;;;;;5063709;28;20424;-77
2023/03/19 06:09:37;;;;;;;6.30;1.30;;;5.00;63.00;;;;;;5068518;28;20075;-76
2023/03/19 06:12:06;;;;;;;4.35;1.45;;;5.00;63.00;;;;;;5088539;28;20142;-76
2023/03/19 06:14:53;;;;;;;12.18;4.30;;;5.00;63.30;;;;;;5087463;28;20040;-78
2023/03/19 06:17:51;;;;;;;3.65;1.20;;;5.10;63.40;;;;;;5077877;28;20183;-81
2023/03/19 06:20:19;;;;;;;8.60;1.50;;;5.10;63.30;;;;;;5074055;28;20040;-78
2023/03/19 06:22:48;;;;;;;4.55;1.70;;;5.20;63.50;;;;;;5074926;28;20044;-77
2023/03/19 06:25:16;;;;;;;13.00;1.70;;;5.20;63.40;;;;;;5091314;28;20048;-80
2023/03/19 06:27:46;;;;;;;5.25;1.38;;;5.30;63.30;;;;;;5073600;28;20048;-80
2023/03/19 06:30:24;;;;;;;4.68;1.58;;;5.20;63.40;;;;;;5074048;28;20044;-76
2023/03/19 06:32:55;;;;;;;6.50;2.22;;;5.20;63.40;;;;;;5075770;28;20520;-77
2023/03/19 06:35:26;;;;;;;2.15;1.63;;;5.10;63.50;;;;;;5052207;28;20044;-76
2023/03/19 06:37:54;;;;;;;5.07;1.23;;;5.00;63.90;;;;;;5038175;28;20055;-81
2023/03/19 06:40:22;;;;;;;6.35;1.40;;;5.10;64.30;;;;;;5055195;28;20509;-82
2023/03/19 06:42:50;;;;;;;3.03;2.30;;;5.10;64.30;;;;;;5061418;28;20071;-82
2023/03/19 06:45:18;;;;;;;12.90;1.60;;;5.20;64.10;;;;;;5076067;28;20095;-82
2023/03/19 06:47:46;;;;;;;3.17;1.52;;;5.20;64.30;;;;;;5064326;28;20154;-83
2023/03/19 06:50:17;;;;;;;4.43;1.70;;;5.30;64.10;;;;;;5074573;28;20044;-78
2023/03/19 06:52:45;;;;;;;6.28;2.00;;;5.30;64.00;;;;;;5089782;28;20048;-78
2023/03/19 06:55:13;;;;;;;2.50;1.50;;;5.30;64.00;;;;;;5079829;28;20582;-81
2023/03/19 06:57:40;;;;;;;10.13;1.40;;;5.30;64.50;;;;;;5069794;28;20056;-79
2023/03/19 07:00:13;;;;;;;4.78;1.80;;;5.30;64.40;;;;;;5077619;28;20046;-79
2023/03/19 07:02:47;;;;;;;3.67;1.35;;;5.40;64.50;;;;;;5056323;28;20071;-76
2023/03/19 07:05:16;;;;;;;6.88;2.08;;;5.40;64.50;;;;;;5063398;28;20063;-77
2023/03/19 07:07:44;;;;;;;2.55;1.80;;;5.50;64.50;;;;;;5080601;28;20055;-79
2023/03/19 07:10:13;;;;;;;9.18;1.50;;;5.60;64.50;;;;;;5080705;28;20044;-78
2023/03/19 07:12:41;;;;;;;4.57;1.45;;;5.60;64.60;;;;;;5074884;28;20050;-77
2023/03/19 07:15:09;;;;;;;7.07;2.03;;;5.70;64.50;;;;;;5064565;28;20051;-78
2023/03/19 07:17:37;;;;;;;10.15;1.88;;;5.90;64.90;;;;;;5093253;28;20108;-76
2023/03/19 07:20:06;;;;;;;5.13;1.77;;;6.00;64.30;;;;;;5089765;28;20139;-74
2023/03/19 07:22:35;;;;;;;3.47;1.70;;;6.20;64.00;;;;;;5082156;28;20052;-75
2023/03/19 07:25:03;;;;;;;11.65;1.85;;;6.20;63.80;;;;;;5074384;28;20428;-81
2023/03/19 07:27:33;;;;;;;9.00;2.15;;;6.20;64.00;;;;;;5072857;28;20051;-75
2023/03/19 07:30:01;;;;;;;6.78;1.70;;;6.20;64.00;;;;;;5091491;28;20048;-76
2023/03/19 07:32:30;;;;;;;7.65;2.00;;;6.20;64.20;;;;;;5079783;28;20512;-75
2023/03/19 07:34:58;;;;;;;4.43;1.75;;;6.20;64.50;;;;;;5084724;28;20109;-76
2023/03/19 07:37:25;;;;;;;3.97;2.08;;;6.30;64.10;;;;;;5073382;28;20067;-82
2023/03/19 07:39:54;;;;;;;3.63;1.65;;;6.20;63.90;;;;;;5072667;28;20101;-84
2023/03/19 07:42:22;;;;;;;12.95;2.03;;;6.10;64.30;;;;;;5091130;28;20071;-83
2023/03/19 07:44:49;;;;;;;7.10;1.75;;;6.10;64.80;;;;;;5087072;28;20048;-83
2023/03/19 07:47:18;;;;;;;4.43;1.95;;;6.10;65.20;;;;;;5078144;28;20053;-85
2023/03/19 07:49:45;;;;;;;6.05;2.42;;;6.20;65.10;;;;;;5088079;28;20074;-82
2023/03/19 07:52:17;;;;;;;4.95;2.00;;;6.30;65.00;;;;;;5057723;28;20054;-84
2023/03/19 07:54:45;;;;;;;4.35;1.65;;;6.40;64.90;;;;;;5084544;28;20398;-75
2023/03/19 07:57:15;;;;;;;7.93;2.33;;;6.60;64.40;;;;;;5087883;28;20106;-75
2023/03/19 07:59:42;;;;;;;4.30;1.70;;;6.70;64.90;;;;;;5088576;28;20056;-75
2023/03/19 08:02:12;;;;;;;8.82;3.50;;;6.80;63.90;;;;;;5087221;28;20032;-82
2023/03/19 08:04:40;;;;;;;6.80;2.42;;;6.90;63.70;;;;;;5090322;28;20105;-74
2023/03/19 08:07:09;;;;;;;8.70;1.92;;;6.90;63.80;;;;;;5081878;28;20048;-75
2023/03/19 08:09:38;;;;;;;11.32;2.30;;;6.90;63.70;;;;;;5072789;28;20110;-75
2023/03/19 08:12:07;;;;;;;7.80;2.78;;;6.90;64.30;;;;;;5068864;28;20498;-75
2023/03/19 08:14:36;;;;;;;7.20;2.22;;;7.10;64.10;;;;;;5072049;28;20044;-75
2023/03/19 08:17:04;;;;;;;8.50;2.33;;;7.30;64.00;;;;;;5081912;28;20045;-74
2023/03/19 08:19:32;;;;;;;8.43;2.25;;;7.60;63.40;;;;;;5093160;28;20059;-81
2023/03/19 08:21:59;;;;;;;4.03;2.40;;;7.70;62.70;;;;;;5062367;28;20101;-81
2023/03/19 08:24:27;;;;;;;8.30;2.10;;;7.80;62.50;;;;;;5075808;28;20048;-81
2023/03/19 08:26:55;;;;;;;5.18;2.40;;;7.80;63.50;;;;;;5095799;28;20551;-80
2023/03/19 08:29:25;;;;;;;7.40;2.28;;;7.80;62.50;;;;;;5093230;28;20040;-81
2023/03/19 08:31:54;;;;;;;8.23;2.50;;;7.80;62.50;;;;;;5074684;28;20171;-73
2023/03/19 08:34:23;;;;;;;6.90;2.65;;;7.80;62.60;;;;;;5070813;28;20135;-74
2023/03/19 08:36:50;;;;;;;3.95;2.25;;;7.80;63.10;;;;;;5092340;28;20496;-74
2023/03/19 08:39:18;;;;;;;4.85;2.17;;;8.00;63.10;;;;;;5090395;28;20098;-75
2023/03/19 08:41:46;;;;;;;5.90;2.20;;;8.00;62.60;;;;;;5049745;28;20049;-76
2023/03/19 08:44:16;;;;;;;8.20;1.92;;;8.40;62.60;;;;;;5093864;28;20071;-77
2023/03/19 08:46:43;;;;;;;8.18;2.33;;;9.10;61.70;;;;;;5053007;28;20052;-76
2023/03/19 08:49:12;;;;;;;4.22;1.98;;;9.90;59.70;;;;;;5074864;28;20052;-83
2023/03/19 08:51:40;;;;;;;7.10;2.38;;;10.50;58.90;;;;;;5086832;28;20048;-83
2023/03/19 08:54:08;;;;;;;8.05;2.50;;;11.30;57.60;;;;;;5097425;28;20040;-83
2023/03/19 08:56:35;;;;;;;3.55;2.33;;;11.60;56.20;;;;;;5062428;28;20048;-76
2023/03/19 08:59:03;;;;;;;4.50;2.20;;;11.20;56.30;;;;;;5092840;28;20048;-75
2023/03/19 09:01:33;;;;;;;4.72;2.17;;;10.60;57.00;;;;;;5091084;28;20071;-82
2023/03/19 09:04:01;;;;;;;5.35;1.75;;;10.00;58.10;;;;;;5095492;28;20051;-82
2023/03/19 09:06:30;;;;;;;6.10;2.10;;;9.70;58.90;;;;;;5091795;28;20052;-76
2023/03/19 09:08:57;;;;;;;7.45;2.30;;;9.50;59.50;;;;;;5059017;28;20044;-76
2023/03/19 09:11:25;;;;;;;8.63;2.50;;;9.40;59.80;;;;;;5072675;28;20086;-75
2023/03/19 09:13:53;;;;;;;5.28;2.20;;;9.30;60.20;;;;;;5105787;28;20090;-74
2023/03/19 09:16:20;;;;;;;8.88;2.85;;;9.40;60.40;;;;;;5106994;28;20135;-74
2023/03/19 09:18:48;;;;;;;6.60;2.03;;;9.50;60.30;;;;;;5095358;28;20052;-81
2023/03/19 09:21:15;;;;;;;3.90;2.22;;;9.50;60.00;;;;;;5071933;28;20060;-80
2023/03/19 09:23:44;;;;;;;3.45;2.40;;;9.30;60.60;;;;;;5059822;28;20417;-81
2023/03/19 09:26:12;;;;;;;4.15;2.00;;;9.20;61.00;;;;;;5040529;28;20055;-82
2023/03/19 09:28:40;;;;;;;5.10;2.22;;;9.10;61.20;;;;;;5070632;28;20047;-79
2023/03/19 09:31:10;;;;;;;7.45;2.78;;;9.20;61.30;;;;;;5075996;28;20056;-85
2023/03/19 09:33:37;;;;;;;7.95;2.20;;;9.20;61.20;;;;;;5088612;28;20074;-82
2023/03/19 09:36:05;;;;;;;6.53;2.38;;;9.20;61.20;;;;;;5075472;28;20583;-81
2023/03/19 09:38:34;;;;;;;5.28;2.40;;;9.10;61.60;;;;;;5092331;28;20059;-77
2023/03/19 09:41:15;;;;;;;3.13;2.35;;;9.20;61.80;;;;;;5073472;28;20060;-76
2023/03/19 09:44:00;;;;;;;9.52;2.58;;;9.30;61.80;;;;;;5078182;28;20512;-75
2023/03/19 09:46:36;;;;;;;5.45;2.40;;;9.60;61.60;;;;;;5091372;28;20055;-80
2023/03/19 09:49:12;;;;;;;4.53;2.80;;;9.60;60.90;;;;;;5069375;28;20086;-79
2023/03/19 09:51:47;;;;;;;9.77;2.38;;;9.40;61.40;;;;;;5091966;28;20098;-81
2023/03/19 09:54:30;;;;;;;3.42;2.45;;;9.40;62.00;;;;;;5068929;28;20098;-83
2023/03/19 09:57:00;;;;;;;4.13;2.90;;;9.40;62.10;;;;;;5065781;28;20050;-84
2023/03/19 09:59:29;;;;;;;7.18;2.85;;;9.60;62.20;;;;;;5090630;28;20113;-81
2023/03/19 10:02:12;;;;;;;5.25;2.50;;;10.10;61.40;;;;;;5072339;28;20043;-82
2023/03/19 10:04:52;;;;;;;7.00;2.55;;;10.40;60.00;;;;;;5086338;28;20044;-83
2023/03/19 10:07:41;;;;;;;6.78;2.53;;;10.40;59.80;;;;;;5083157;28;20110;-81
2023/03/19 10:10:36;;;;;;;9.20;2.40;;;10.30;60.30;;;;;;5090646;28;20055;-82
2023/03/19 10:13:17;;;;;;;9.27;2.30;;;10.10;60.40;;;;;;5092987;28;20052;-82
2023/03/19 10:15:46;;;;;;;4.30;2.60;;;9.80;61.20;;;;;;5070028;28;20067;-82
2023/03/19 10:18:20;;;;;;;5.10;3.60;;;9.70;61.40;;;;;;5088451;28;20039;-84
2023/03/19 10:20:55;;;;;;;12.52;5.53;;;9.70;62.00;;;;;;5075538;28;20163;-83
2023/03/19 10:23:44;;;;;;;5.97;3.72;;;9.60;62.00;;;;;;5091317;28;20056;-83
2023/03/19 10:26:17;;;;;;;5.35;2.70;;;9.80;63.10;;;;;;5080471;28;20047;-83
2023/03/19 10:29:07;;;;;;;8.25;5.00;;;10.00;63.70;;;;;;5080716;28;20048;-84
2023/03/19 10:31:52;;;;;;;8.93;4.13;;;10.20;63.10;;;;;;5103871;28;20128;-87
2023/03/19 10:34:31;;;;;;;11.15;3.95;;;10.20;61.60;;;;;;5085673;28;20040;-86
2023/03/19 10:37:03;;;;;;;10.48;4.07;;;10.10;61.80;;;;;;5037816;28;20052;-83
2023/03/19 10:39:36;;;;;;;12.07;4.13;;;10.10;62.30;;;;;;5063867;28;20074;-83
2023/03/19 10:42:35;;;;;;;10.95;2.65;;;10.00;62.70;;;;;;5090174;28;20044;-82
2023/03/19 10:45:20;;;;;;;8.00;3.17;;;9.80;63.00;;;;;;5069300;28;20072;-83
2023/03/19 10:47:48;;;;;;;4.78;2.38;;;9.60;63.40;;;;;;5092199;28;20504;-82
2023/03/19 10:50:19;;;;;;;5.40;3.13;;;9.20;64.00;;;;;;5091936;28;20055;-81
2023/03/19 10:52:53;;;;;;;3.50;2.42;;;8.90;65.00;;;;;;5089899;28;20055;-82
2023/03/19 10:55:28;;;;;;;6.22;2.97;;;8.60;66.10;;;;;;5091679;28;20165;-83
2023/03/19 10:58:03;;;;;;;16.05;4.18;;;8.40;66.50;;;;;;5083536;28;20133;-82
2023/03/19 11:00:36;;;;;;;8.50;3.13;;;8.20;67.60;;;;;;5089142;28;20145;-83
2023/03/19 11:03:34;;;;;;;5.82;2.90;;;8.20;67.80;;;;;;5087777;28;20044;-85
2023/03/19 11:06:17;;;;;;;8.20;3.28;;;8.20;67.90;;;;;;5090831;28;20050;-85
2023/03/19 11:08:55;;;;;;;5.82;2.92;;;8.30;68.50;;;;;;5073887;28;20064;-87
2023/03/19 11:11:46;;;;;;;9.52;3.20;;;8.30;68.20;;;;;;5066664;28;20042;-82
2023/03/19 11:14:19;;;;;;;5.38;2.50;;;8.40;68.60;;;;;;5051197;28;20052;-87
2023/03/19 11:16:57;;;;;;;4.07;2.80;;;8.50;68.10;;;;;;5091236;28;20059;-85
2023/03/19 11:19:28;;;;;;;4.60;2.97;;;8.40;67.90;;;;;;5087974;28;20091;-80
2023/03/19 11:22:15;;;;;;;7.68;2.70;;;8.40;68.30;;;;;;5090186;28;20146;-84
2023/03/19 11:24:51;;;;;;;10.13;3.28;;;8.40;68.50;;;;;;5056804;28;20155;-81
2023/03/19 11:27:27;;;;;;;9.85;3.63;;;8.40;69.30;;;;;;5073968;28;20052;-81
2023/03/19 11:29:54;;;;;;;9.48;3.30;;;8.50;68.90;;;;;;5083041;28;20155;-81
2023/03/19 11:33:03;;;;;;;6.57;2.88;;;8.40;68.90;;;;;;5053475;28;20048;-85
2023/03/19 11:35:37;;;;;;;9.82;3.10;;;8.30;69.60;;;;;;5071499;28;20099;-81
2023/03/19 11:38:10;;;;;;;13.90;3.03;;;8.30;69.60;;;;;;5074951;28;20501;-83
2023/03/19 11:40:45;;;;;;;9.38;2.78;;;8.40;69.80;;;;;;5078883;28;20056;-83
2023/03/19 11:43:55;;;;;;;9.60;2.80;;;8.30;69.70;;;;;;5089769;28;20589;-80
2023/03/19 11:46:36;;;;;;;5.57;2.50;;;8.20;70.00;;;;;;5059955;28;20547;-82
2023/03/19 11:49:32;;;;;;;10.75;3.53;;;8.10;70.50;;;;;;5068615;28;20069;-84
2023/03/19 11:52:08;;;;;;;5.93;2.85;;;8.10;70.80;;;;;;5067911;28;20393;-78
2023/03/19 11:54:51;;;;;;;8.07;3.30;;;8.10;71.10;;;;;;5106170;28;20055;-77
2023/03/19 11:58:04;;;;;;;8.48;3.47;;;8.00;71.20;;;;;;5074399;28;20122;-77
2023/03/19 12:00:40;;;;;;;6.75;2.90;;;8.00;71.60;;;;;;5090201;28;20562;-77
2023/03/19 12:03:52;;;;;;;7.40;3.95;;;8.00;71.80;;;;;;5091225;28;20044;-83
2023/03/19 12:06:35;;;;;;;8.65;3.00;;;8.10;72.20;;;;;;5087468;28;20059;-78
2023/03/19 12:09:11;;;;;;;6.60;3.22;;;8.10;72.00;;;;;;5087318;28;20051;-79
2023/03/19 12:11:48;;;;;;;4.40;2.90;;;8.20;71.70;;;;;;5069747;28;20052;-79
2023/03/19 12:14:41;;;;;;;8.25;3.20;;;8.10;71.80;;;;;;5087082;28;20057;-80
2023/03/19 12:17:40;;;;;;;8.43;3.00;;;8.10;72.10;;;;;;5084680;28;20094;-79
2023/03/19 12:20:31;;;;;;;11.25;3.65;;;8.10;72.20;;;;;;5083983;28;20048;-81
2023/03/19 12:23:15;;;;;;;7.45;3.42;;;8.10;72.60;;;;;;5069812;28;20037;-82
2023/03/19 12:26:03;;;;;;;11.68;5.20;;;8.20;72.20;;;;;;5092501;28;20143;-82
2023/03/19 12:28:34;;;;;;;9.63;4.72;;;8.10;72.60;;;;;;5095007;28;20106;-81
2023/03/19 12:31:40;;;;;;;10.73;3.28;;;8.10;73.00;;;;;;5064905;28;20151;-82
2023/03/19 12:34:29;;;;;;;4.63;2.70;;;8.10;72.90;;;;;;5036648;28;20052;-82
2023/03/19 12:37:15;;;;;;;6.45;3.30;;;8.10;72.80;;;;;;5081105;28;20052;-80
2023/03/19 12:39:54;;;;;;;6.70;3.00;;;8.00;73.10;;;;;;5055791;28;20059;-85
2023/03/19 12:42:30;;;;;;;4.72;3.20;;;7.80;73.60;;;;;;5063917;28;20076;-81
2023/03/19 12:45:03;;;;;;;5.75;3.03;;;7.80;74.10;;;;;;5075232;28;20048;-82
2023/03/19 12:47:42;;;;;;;4.35;3.13;;;7.70;74.20;;;;;;5072772;28;20051;-85
2023/03/19 12:50:16;;;;;;;6.65;2.90;;;7.70;75.10;;;;;;5051901;28;20040;-83
2023/03/19 12:52:48;;;;;;;7.55;4.30;;;7.70;74.70;;;;;;5068830;28;20501;-84
2023/03/19 12:55:22;;;;;;;8.45;4.00;;;7.80;74.80;;;;;;5088403;28;20052;-82
2023/03/19 12:57:55;;;;;;;6.53;3.55;;;7.80;75.10;;;;;;5067182;28;20052;-82
2023/03/19 13:00:30;;;;;;;14.63;3.83;;;7.80;75.20;;;;;;5083783;28;20044;-84
2023/03/19 13:03:09;;;;;;;10.52;4.55;;;7.90;74.70;;;;;;5077183;28;20135;-84
2023/03/19 13:05:43;;;;;;;8.57;4.38;;;8.00;74.60;;;;;;5086622;28;20048;-83
2023/03/19 13:08:17;;;;;;;6.57;4.10;;;8.00;74.30;;;;;;5089360;28;22258;-77
2023/03/19 13:10:47;;;;;;;8.57;4.43;;;8.00;74.00;;;;;;5089205;28;20565;-74
2023/03/19 13:13:32;;;;;;;12.00;4.38;;;7.90;74.20;;;;;;5071485;28;20035;-76
2023/03/19 13:16:04;;;;;;;13.48;5.45;;;7.90;73.90;;;;;;5075150;28;20492;-75
2023/03/19 13:18:39;;;;;;;9.88;4.80;;;8.00;74.20;;;;;;5088274;28;20421;-74
2023/03/19 13:21:23;;;;;;;6.88;4.10;;;8.10;73.90;;;;;;5052531;28;20056;-75
2023/03/19 13:24:10;;;;;;;13.30;4.63;;;8.10;73.50;;;;;;5072050;28;20457;-80
2023/03/19 13:26:40;;;;;;;15.68;5.00;;;8.10;73.30;;;;;;5070950;28;20067;-74